KOWB/OWB METAR and TAF weather

Enter ICAO airport designator
Station Type Date Time Source
KOWB METAR 2018/12/13 19:56 UTC NOAA

KOWB 131956Z 13009KT 10SM BKN090 14/09 A3002 RMK AO2 RAB35E46 SLP180 P0000 T01440089


Station Type Date Time Source
KOWB Decoded METAR 2018/12/13 19:56 UTC NOAA

Owensboro, Owensboro-Daviess County Airport, KY, United States (KOWB) 37-44-24N 087-10-00W
Dec 13, 2018 - 02:56 PM EST / 2018.12.13 1956 UTC
Wind: from the SE (130 degrees) at 10 MPH (9 KT):0
Visibility: 10 mile(s):0
Sky conditions: mostly cloudy
Precipitation last hour: A trace
Temperature: 57.9 F (14.4 C)
Dew Point: 48.0 F (8.9 C)
Relative Humidity: 69%
Pressure (altimeter): 30.02 in. Hg (1016 hPa)
ob: KOWB 131956Z 13009KT 10SM BKN090 14/09 A3002 RMK AO2 RAB35E46 SLP180 P0000 T01440089
cycle: 20

Station Type Date Time Source
KOWB TAF 2018/12/13 18:22 UTC NOAA

TAF KOWB 131720Z 1318/1418 14007KT P6SM -RA BKN050
FM132100 14007KT P6SM VCSH BKN060
FM141000 09005KT 6SM -RA BR OVC025
FM141200 07006KT 4SM -RA BR SCT007 OVC015


Example: see airport list